sensor_id;sensor_type;location;lat;lon;timestamp;P1;durP1;ratioP1;P2;durP2;ratioP2
25980;SDS011;13772;52.996;9.124;2022-12-15T09:59:36;12.23;;;8.57;;
25980;SDS011;13772;52.996;9.124;2022-12-15T10:02:27;11.13;;;9.05;;
25980;SDS011;13772;52.996;9.124;2022-12-15T10:05:13;13.45;;;9.27;;
25980;SDS011;13772;52.996;9.124;2022-12-15T10:07:43;14.38;;;9.13;;
25980;SDS011;13772;52.996;9.124;2022-12-15T10:10:24;14.60;;;9.00;;
25980;SDS011;13772;52.996;9.124;2022-12-15T10:12:53;13.73;;;8.65;;
25980;SDS011;13772;52.996;9.124;2022-12-15T10:15:25;13.77;;;9.77;;
25980;SDS011;13772;52.996;9.124;2022-12-15T10:17:55;17.73;;;9.93;;
25980;SDS011;13772;52.996;9.124;2022-12-15T10:20:27;14.00;;;8.85;;
25980;SDS011;13772;52.996;9.124;2022-12-15T10:22:54;14.43;;;8.80;;
25980;SDS011;13772;52.996;9.124;2022-12-15T10:25:25;15.80;;;8.98;;
25980;SDS011;13772;52.996;9.124;2022-12-15T10:28:01;14.57;;;9.07;;
25980;SDS011;13772;52.996;9.124;2022-12-15T10:30:30;14.15;;;8.85;;
25980;SDS011;13772;52.996;9.124;2022-12-15T10:35:24;17.48;;;9.15;;
25980;SDS011;13772;52.996;9.124;2022-12-15T10:37:53;17.02;;;9.65;;
25980;SDS011;13772;52.996;9.124;2022-12-15T10:40:40;18.23;;;10.07;;
25980;SDS011;13772;52.996;9.124;2022-12-15T10:43:13;14.60;;;9.17;;
25980;SDS011;13772;52.996;9.124;2022-12-15T10:45:39;16.00;;;9.60;;
25980;SDS011;13772;52.996;9.124;2022-12-15T10:48:04;15.97;;;9.70;;
25980;SDS011;13772;52.996;9.124;2022-12-15T10:50:31;16.17;;;10.17;;
25980;SDS011;13772;52.996;9.124;2022-12-15T10:52:56;18.57;;;10.20;;
25980;SDS011;13772;52.996;9.124;2022-12-15T10:58:03;18.40;;;10.70;;
25980;SDS011;13772;52.996;9.124;2022-12-15T11:00:29;15.77;;;10.07;;
25980;SDS011;13772;52.996;9.124;2022-12-15T11:02:56;19.00;;;11.07;;
25980;SDS011;13772;52.996;9.124;2022-12-15T11:05:21;17.67;;;9.87;;
25980;SDS011;13772;52.996;9.124;2022-12-15T11:07:48;19.90;;;10.83;;
25980;SDS011;13772;52.996;9.124;2022-12-15T11:12:42;19.40;;;10.27;;
25980;SDS011;13772;52.996;9.124;2022-12-15T11:20:19;17.03;;;9.83;;
25980;SDS011;13772;52.996;9.124;2022-12-15T11:22:51;18.93;;;10.27;;
25980;SDS011;13772;52.996;9.124;2022-12-15T11:25:32;16.02;;;9.93;;
25980;SDS011;13772;52.996;9.124;2022-12-15T11:28:01;18.40;;;10.00;;
25980;SDS011;13772;52.996;9.124;2022-12-15T11:30:30;18.70;;;10.67;;
25980;SDS011;13772;52.996;9.124;2022-12-15T11:32:57;19.48;;;10.55;;
25980;SDS011;13772;52.996;9.124;2022-12-15T11:35:48;15.97;;;9.13;;
25980;SDS011;13772;52.996;9.124;2022-12-15T11:38:24;18.43;;;9.23;;
25980;SDS011;13772;52.996;9.124;2022-12-15T11:40:53;15.53;;;9.17;;
25980;SDS011;13772;52.996;9.124;2022-12-15T11:45:49;15.67;;;9.70;;
25980;SDS011;13772;52.996;9.124;2022-12-15T11:48:20;16.33;;;9.50;;
25980;SDS011;13772;52.996;9.124;2022-12-15T11:50:58;15.73;;;10.20;;
25980;SDS011;13772;52.996;9.124;2022-12-15T12:01:29;18.43;;;10.90;;
25980;SDS011;13772;52.996;9.124;2022-12-15T12:04:15;20.27;;;10.43;;
25980;SDS011;13772;52.996;9.124;2022-12-15T12:11:53;21.10;;;10.80;;
25980;SDS011;13772;52.996;9.124;2022-12-15T12:19:18;16.67;;;10.33;;
25980;SDS011;13772;52.996;9.124;2022-12-15T12:21:45;15.03;;;10.13;;
25980;SDS011;13772;52.996;9.124;2022-12-15T12:26:40;19.40;;;11.00;;
25980;SDS011;13772;52.996;9.124;2022-12-15T12:29:15;19.70;;;11.33;;
25980;SDS011;13772;52.996;9.124;2022-12-15T12:34:21;19.17;;;11.87;;
25980;SDS011;13772;52.996;9.124;2022-12-15T12:36:47;23.23;;;12.77;;
25980;SDS011;13772;52.996;9.124;2022-12-15T12:39:16;22.73;;;14.33;;
25980;SDS011;13772;52.996;9.124;2022-12-15T12:41:58;19.97;;;12.73;;
25980;SDS011;13772;52.996;9.124;2022-12-15T12:44:31;21.83;;;12.80;;
25980;SDS011;13772;52.996;9.124;2022-12-15T12:46:58;21.40;;;13.00;;
25980;SDS011;13772;52.996;9.124;2022-12-15T12:49:28;21.40;;;12.73;;
25980;SDS011;13772;52.996;9.124;2022-12-15T12:51:55;18.70;;;12.43;;
25980;SDS011;13772;52.996;9.124;2022-12-15T12:57:45;23.13;;;12.80;;
25980;SDS011;13772;52.996;9.124;2022-12-15T13:00:30;22.13;;;13.00;;
25980;SDS011;13772;52.996;9.124;2022-12-15T13:07:54;22.27;;;14.20;;
25980;SDS011;13772;52.996;9.124;2022-12-15T13:10:20;26.10;;;13.33;;
25980;SDS011;13772;52.996;9.124;2022-12-15T13:13:14;25.67;;;13.53;;
25980;SDS011;13772;52.996;9.124;2022-12-15T13:15:36;27.20;;;13.63;;
25980;SDS011;13772;52.996;9.124;2022-12-15T13:18:22;25.25;;;14.02;;
25980;SDS011;13772;52.996;9.124;2022-12-15T13:20:49;22.83;;;13.60;;
25980;SDS011;13772;52.996;9.124;2022-12-15T13:33:44;25.80;;;12.97;;
25980;SDS011;13772;52.996;9.124;2022-12-15T13:41:41;24.13;;;13.83;;
25980;SDS011;13772;52.996;9.124;2022-12-15T13:46:51;21.00;;;13.40;;
25980;SDS011;13772;52.996;9.124;2022-12-15T13:49:28;20.47;;;13.53;;
25980;SDS011;13772;52.996;9.124;2022-12-15T13:52:11;27.47;;;14.93;;
25980;SDS011;13772;52.996;9.124;2022-12-15T13:54:38;23.43;;;13.33;;
25980;SDS011;13772;52.996;9.124;2022-12-15T13:57:08;22.43;;;13.60;;
25980;SDS011;13772;52.996;9.124;2022-12-15T13:59:46;22.17;;;12.48;;
25980;SDS011;13772;52.996;9.124;2022-12-15T14:02:28;20.40;;;13.07;;
25980;SDS011;13772;52.996;9.124;2022-12-15T14:07:39;21.10;;;13.07;;
25980;SDS011;13772;52.996;9.124;2022-12-15T14:10:05;21.50;;;12.87;;
25980;SDS011;13772;52.996;9.124;2022-12-15T14:12:31;24.07;;;13.40;;
25980;SDS011;13772;52.996;9.124;2022-12-15T14:14:57;23.70;;;13.37;;
25980;SDS011;13772;52.996;9.124;2022-12-15T14:17:22;21.90;;;13.27;;
25980;SDS011;13772;52.996;9.124;2022-12-15T14:19:48;25.10;;;13.23;;
25980;SDS011;13772;52.996;9.124;2022-12-15T14:24:43;27.00;;;14.30;;
25980;SDS011;13772;52.996;9.124;2022-12-15T14:27:08;31.00;;;17.63;;
25980;SDS011;13772;52.996;9.124;2022-12-15T14:29:33;29.73;;;17.40;;
25980;SDS011;13772;52.996;9.124;2022-12-15T14:31:59;24.13;;;15.60;;
25980;SDS011;13772;52.996;9.124;2022-12-15T14:34:37;42.10;;;21.10;;
25980;SDS011;13772;52.996;9.124;2022-12-15T14:37:05;62.00;;;29.98;;
25980;SDS011;13772;52.996;9.124;2022-12-15T14:41:57;79.33;;;37.27;;
25980;SDS011;13772;52.996;9.124;2022-12-15T14:44:27;51.13;;;25.27;;
25980;SDS011;13772;52.996;9.124;2022-12-15T14:46:53;40.47;;;22.43;;
25980;SDS011;13772;52.996;9.124;2022-12-15T14:49:19;41.87;;;21.47;;
25980;SDS011;13772;52.996;9.124;2022-12-15T14:51:47;36.40;;;20.77;;
25980;SDS011;13772;52.996;9.124;2022-12-15T14:54:24;30.00;;;18.97;;
25980;SDS011;13772;52.996;9.124;2022-12-15T14:57:12;43.93;;;24.60;;
25980;SDS011;13772;52.996;9.124;2022-12-15T14:59:38;50.00;;;27.20;;
25980;SDS011;13772;52.996;9.124;2022-12-15T15:04:32;27.07;;;15.53;;
25980;SDS011;13772;52.996;9.124;2022-12-15T15:06:59;32.37;;;17.70;;
25980;SDS011;13772;52.996;9.124;2022-12-15T15:09:28;27.73;;;16.47;;
25980;SDS011;13772;52.996;9.124;2022-12-15T15:14:24;38.80;;;21.63;;
25980;SDS011;13772;52.996;9.124;2022-12-15T15:17:04;28.13;;;16.50;;
25980;SDS011;13772;52.996;9.124;2022-12-15T15:19:30;26.07;;;16.40;;
25980;SDS011;13772;52.996;9.124;2022-12-15T15:21:57;31.90;;;17.77;;
25980;SDS011;13772;52.996;9.124;2022-12-15T15:24:24;29.17;;;17.20;;
25980;SDS011;13772;52.996;9.124;2022-12-15T15:26:53;25.77;;;15.13;;
25980;SDS011;13772;52.996;9.124;2022-12-15T15:29:38;24.87;;;15.30;;
25980;SDS011;13772;52.996;9.124;2022-12-15T15:32:05;28.13;;;16.97;;
25980;SDS011;13772;52.996;9.124;2022-12-15T15:34:31;31.17;;;17.23;;
25980;SDS011;13772;52.996;9.124;2022-12-15T15:36:57;27.60;;;16.97;;
25980;SDS011;13772;52.996;9.124;2022-12-15T15:39:22;29.83;;;17.07;;
25980;SDS011;13772;52.996;9.124;2022-12-15T15:41:47;30.43;;;18.10;;
25980;SDS011;13772;52.996;9.124;2022-12-15T15:44:13;28.63;;;16.77;;
25980;SDS011;13772;52.996;9.124;2022-12-15T15:46:49;30.70;;;18.50;;
25980;SDS011;13772;52.996;9.124;2022-12-15T15:49:18;31.00;;;17.93;;
25980;SDS011;13772;52.996;9.124;2022-12-15T15:51:44;32.15;;;18.02;;
25980;SDS011;13772;52.996;9.124;2022-12-15T15:54:11;34.23;;;18.63;;
25980;SDS011;13772;52.996;9.124;2022-12-15T15:56:37;33.60;;;19.67;;
25980;SDS011;13772;52.996;9.124;2022-12-15T15:59:19;33.87;;;19.07;;
25980;SDS011;13772;52.996;9.124;2022-12-15T16:01:45;35.13;;;19.63;;
25980;SDS011;13772;52.996;9.124;2022-12-15T16:04:12;38.83;;;20.13;;
25980;SDS011;13772;52.996;9.124;2022-12-15T16:06:37;31.93;;;18.47;;
25980;SDS011;13772;52.996;9.124;2022-12-15T16:09:03;33.87;;;20.90;;
25980;SDS011;13772;52.996;9.124;2022-12-15T16:11:29;34.67;;;18.97;;
25980;SDS011;13772;52.996;9.124;2022-12-15T16:13:55;38.23;;;20.20;;
25980;SDS011;13772;52.996;9.124;2022-12-15T16:16:21;33.73;;;20.40;;
25980;SDS011;13772;52.996;9.124;2022-12-15T16:18:47;36.73;;;20.90;;
25980;SDS011;13772;52.996;9.124;2022-12-15T16:21:13;35.07;;;20.90;;
25980;SDS011;13772;52.996;9.124;2022-12-15T16:23:39;34.70;;;21.20;;
25980;SDS011;13772;52.996;9.124;2022-12-15T16:26:07;40.60;;;21.97;;
25980;SDS011;13772;52.996;9.124;2022-12-15T16:28:33;38.53;;;20.97;;
25980;SDS011;13772;52.996;9.124;2022-12-15T16:30:59;35.60;;;19.40;;
25980;SDS011;13772;52.996;9.124;2022-12-15T16:33:25;29.37;;;19.13;;
25980;SDS011;13772;52.996;9.124;2022-12-15T16:35:50;32.73;;;20.17;;
25980;SDS011;13772;52.996;9.124;2022-12-15T16:38:18;40.03;;;20.90;;
25980;SDS011;13772;52.996;9.124;2022-12-15T16:43:15;31.17;;;19.10;;
25980;SDS011;13772;52.996;9.124;2022-12-15T16:45:44;35.03;;;19.63;;
25980;SDS011;13772;52.996;9.124;2022-12-15T16:48:11;37.57;;;22.00;;
25980;SDS011;13772;52.996;9.124;2022-12-15T16:50:37;37.13;;;19.93;;
25980;SDS011;13772;52.996;9.124;2022-12-15T16:53:02;38.77;;;23.10;;
25980;SDS011;13772;52.996;9.124;2022-12-15T16:55:29;38.70;;;22.57;;
25980;SDS011;13772;52.996;9.124;2022-12-15T16:57:55;36.27;;;21.47;;
25980;SDS011;13772;52.996;9.124;2022-12-15T17:00:22;35.77;;;18.73;;
25980;SDS011;13772;52.996;9.124;2022-12-15T17:02:48;31.17;;;18.10;;
25980;SDS011;13772;52.996;9.124;2022-12-15T17:05:14;33.10;;;17.93;;
25980;SDS011;13772;52.996;9.124;2022-12-15T17:07:40;32.50;;;19.07;;
25980;SDS011;13772;52.996;9.124;2022-12-15T17:10:06;32.17;;;18.77;;
25980;SDS011;13772;52.996;9.124;2022-12-15T17:12:31;33.60;;;19.90;;
25980;SDS011;13772;52.996;9.124;2022-12-15T17:14:57;37.00;;;19.63;;
25980;SDS011;13772;52.996;9.124;2022-12-15T17:17:22;28.70;;;18.07;;
25980;SDS011;13772;52.996;9.124;2022-12-15T17:19:47;36.67;;;19.77;;
25980;SDS011;13772;52.996;9.124;2022-12-15T17:22:14;30.37;;;19.40;;
25980;SDS011;13772;52.996;9.124;2022-12-15T17:24:42;32.70;;;19.50;;
25980;SDS011;13772;52.996;9.124;2022-12-15T17:27:11;39.20;;;20.43;;
25980;SDS011;13772;52.996;9.124;2022-12-15T17:29:41;32.73;;;19.27;;
25980;SDS011;13772;52.996;9.124;2022-12-15T17:32:09;33.50;;;19.67;;
25980;SDS011;13772;52.996;9.124;2022-12-15T17:34:36;34.13;;;19.92;;
25980;SDS011;13772;52.996;9.124;2022-12-15T17:37:02;34.93;;;20.37;;
25980;SDS011;13772;52.996;9.124;2022-12-15T17:39:28;35.70;;;22.33;;
25980;SDS011;13772;52.996;9.124;2022-12-15T17:41:54;41.27;;;23.40;;
25980;SDS011;13772;52.996;9.124;2022-12-15T17:44:20;34.00;;;21.73;;
25980;SDS011;13772;52.996;9.124;2022-12-15T17:46:46;38.30;;;23.00;;
25980;SDS011;13772;52.996;9.124;2022-12-15T17:49:12;38.20;;;21.03;;
25980;SDS011;13772;52.996;9.124;2022-12-15T17:51:37;32.37;;;20.07;;
25980;SDS011;13772;52.996;9.124;2022-12-15T17:54:02;32.50;;;18.97;;
25980;SDS011;13772;52.996;9.124;2022-12-15T17:56:28;34.07;;;19.63;;
25980;SDS011;13772;52.996;9.124;2022-12-15T17:58:53;37.67;;;20.00;;
25980;SDS011;13772;52.996;9.124;2022-12-15T18:01:18;34.40;;;19.43;;
25980;SDS011;13772;52.996;9.124;2022-12-15T18:03:44;37.07;;;20.27;;
25980;SDS011;13772;52.996;9.124;2022-12-15T18:06:13;35.97;;;20.47;;
25980;SDS011;13772;52.996;9.124;2022-12-15T18:08:39;38.30;;;21.37;;
25980;SDS011;13772;52.996;9.124;2022-12-15T18:11:05;37.60;;;21.43;;
25980;SDS011;13772;52.996;9.124;2022-12-15T18:13:31;40.07;;;21.90;;
25980;SDS011;13772;52.996;9.124;2022-12-15T18:15:56;39.73;;;22.00;;
25980;SDS011;13772;52.996;9.124;2022-12-15T18:18:22;40.70;;;22.17;;
25980;SDS011;13772;52.996;9.124;2022-12-15T18:20:48;37.77;;;21.57;;
25980;SDS011;13772;52.996;9.124;2022-12-15T18:23:18;40.47;;;21.20;;
25980;SDS011;13772;52.996;9.124;2022-12-15T18:25:44;37.27;;;21.93;;
25980;SDS011;13772;52.996;9.124;2022-12-15T18:28:14;40.00;;;22.10;;
25980;SDS011;13772;52.996;9.124;2022-12-15T18:30:41;40.20;;;22.50;;
25980;SDS011;13772;52.996;9.124;2022-12-15T18:33:07;39.27;;;22.67;;
25980;SDS011;13772;52.996;9.124;2022-12-15T18:35:35;40.10;;;22.07;;
25980;SDS011;13772;52.996;9.124;2022-12-15T18:38:01;39.53;;;23.00;;
25980;SDS011;13772;52.996;9.124;2022-12-15T18:40:26;37.30;;;21.80;;
25980;SDS011;13772;52.996;9.124;2022-12-15T18:42:52;36.80;;;21.57;;
25980;SDS011;13772;52.996;9.124;2022-12-15T18:45:19;38.13;;;21.30;;
25980;SDS011;13772;52.996;9.124;2022-12-15T18:47:45;35.77;;;20.83;;
25980;SDS011;13772;52.996;9.124;2022-12-15T18:50:18;39.80;;;22.43;;
25980;SDS011;13772;52.996;9.124;2022-12-15T18:52:44;34.80;;;21.07;;
25980;SDS011;13772;52.996;9.124;2022-12-15T18:55:17;42.20;;;22.30;;
25980;SDS011;13772;52.996;9.124;2022-12-15T18:57:43;36.73;;;21.40;;
25980;SDS011;13772;52.996;9.124;2022-12-15T19:02:33;41.17;;;21.93;;
25980;SDS011;13772;52.996;9.124;2022-12-15T19:04:59;40.00;;;22.43;;
25980;SDS011;13772;52.996;9.124;2022-12-15T19:07:24;40.87;;;22.30;;
25980;SDS011;13772;52.996;9.124;2022-12-15T19:09:49;45.60;;;24.47;;
25980;SDS011;13772;52.996;9.124;2022-12-15T19:12:15;49.43;;;25.83;;
25980;SDS011;13772;52.996;9.124;2022-12-15T19:14:44;39.50;;;22.63;;
25980;SDS011;13772;52.996;9.124;2022-12-15T19:17:12;46.27;;;25.57;;
25980;SDS011;13772;52.996;9.124;2022-12-15T19:19:56;41.70;;;22.40;;
25980;SDS011;13772;52.996;9.124;2022-12-15T19:22:40;53.60;;;26.27;;
25980;SDS011;13772;52.996;9.124;2022-12-15T19:25:06;46.47;;;24.57;;
25980;SDS011;13772;52.996;9.124;2022-12-15T19:27:33;41.50;;;23.83;;
25980;SDS011;13772;52.996;9.124;2022-12-15T19:29:58;38.93;;;23.23;;
25980;SDS011;13772;52.996;9.124;2022-12-15T19:32:23;42.07;;;21.70;;
25980;SDS011;13772;52.996;9.124;2022-12-15T19:34:48;39.53;;;20.87;;
25980;SDS011;13772;52.996;9.124;2022-12-15T19:37:26;38.97;;;21.77;;
25980;SDS011;13772;52.996;9.124;2022-12-15T19:39:53;36.92;;;20.02;;
25980;SDS011;13772;52.996;9.124;2022-12-15T19:42:19;37.93;;;21.47;;
25980;SDS011;13772;52.996;9.124;2022-12-15T19:44:47;35.17;;;20.23;;
25980;SDS011;13772;52.996;9.124;2022-12-15T19:47:12;38.00;;;20.70;;
25980;SDS011;13772;52.996;9.124;2022-12-15T19:49:38;44.70;;;22.37;;
25980;SDS011;13772;52.996;9.124;2022-12-15T19:52:04;46.87;;;24.07;;
25980;SDS011;13772;52.996;9.124;2022-12-15T19:54:29;95.40;;;36.93;;
25980;SDS011;13772;52.996;9.124;2022-12-15T19:56:55;111.60;;;39.70;;
25980;SDS011;13772;52.996;9.124;2022-12-15T19:59:22;132.20;;;44.73;;
25980;SDS011;13772;52.996;9.124;2022-12-15T20:01:48;138.27;;;49.00;;
25980;SDS011;13772;52.996;9.124;2022-12-15T20:04:15;95.33;;;39.60;;
25980;SDS011;13772;52.996;9.124;2022-12-15T20:06:41;48.30;;;25.50;;
25980;SDS011;13772;52.996;9.124;2022-12-15T20:09:09;37.00;;;20.23;;
25980;SDS011;13772;52.996;9.124;2022-12-15T20:11:37;37.78;;;20.50;;
25980;SDS011;13772;52.996;9.124;2022-12-15T20:14:08;37.77;;;19.73;;
25980;SDS011;13772;52.996;9.124;2022-12-15T20:16:33;37.50;;;19.90;;
25980;SDS011;13772;52.996;9.124;2022-12-15T20:18:59;32.97;;;19.47;;
25980;SDS011;13772;52.996;9.124;2022-12-15T20:21:25;39.57;;;19.40;;
25980;SDS011;13772;52.996;9.124;2022-12-15T20:23:56;31.63;;;18.47;;
25980;SDS011;13772;52.996;9.124;2022-12-15T20:26:22;38.10;;;19.38;;
25980;SDS011;13772;52.996;9.124;2022-12-15T20:28:48;177.40;;;59.43;;
25980;SDS011;13772;52.996;9.124;2022-12-15T20:31:14;119.20;;;44.13;;
25980;SDS011;13772;52.996;9.124;2022-12-15T20:33:40;101.23;;;38.60;;
25980;SDS011;13772;52.996;9.124;2022-12-15T20:36:08;59.57;;;27.67;;
25980;SDS011;13772;52.996;9.124;2022-12-15T20:38:34;43.67;;;23.23;;
25980;SDS011;13772;52.996;9.124;2022-12-15T20:41:00;54.17;;;28.30;;
25980;SDS011;13772;52.996;9.124;2022-12-15T20:43:27;44.87;;;25.97;;
25980;SDS011;13772;52.996;9.124;2022-12-15T20:46:37;41.97;;;22.77;;
25980;SDS011;13772;52.996;9.124;2022-12-15T20:48:43;42.28;;;21.55;;
25980;SDS011;13772;52.996;9.124;2022-12-15T20:51:42;33.03;;;19.40;;
25980;SDS011;13772;52.996;9.124;2022-12-15T20:54:01;32.83;;;19.03;;
25980;SDS011;13772;52.996;9.124;2022-12-15T20:56:27;36.23;;;20.07;;
25980;SDS011;13772;52.996;9.124;2022-12-15T20:58:53;35.33;;;19.60;;
25980;SDS011;13772;52.996;9.124;2022-12-15T21:01:23;36.67;;;19.77;;
25980;SDS011;13772;52.996;9.124;2022-12-15T21:03:49;35.20;;;20.53;;
25980;SDS011;13772;52.996;9.124;2022-12-15T21:06:15;36.13;;;19.67;;
25980;SDS011;13772;52.996;9.124;2022-12-15T21:08:41;33.97;;;19.73;;
25980;SDS011;13772;52.996;9.124;2022-12-15T21:11:17;43.00;;;20.53;;
25980;SDS011;13772;52.996;9.124;2022-12-15T21:13:43;39.37;;;21.60;;
25980;SDS011;13772;52.996;9.124;2022-12-15T21:16:19;35.17;;;20.97;;
25980;SDS011;13772;52.996;9.124;2022-12-15T21:18:45;39.90;;;21.10;;
25980;SDS011;13772;52.996;9.124;2022-12-15T21:21:17;36.97;;;20.63;;
25980;SDS011;13772;52.996;9.124;2022-12-15T21:23:45;36.17;;;20.50;;
25980;SDS011;13772;52.996;9.124;2022-12-15T21:26:10;40.57;;;21.57;;
25980;SDS011;13772;52.996;9.124;2022-12-15T21:28:35;39.10;;;20.60;;
25980;SDS011;13772;52.996;9.124;2022-12-15T21:31:00;38.17;;;21.27;;
25980;SDS011;13772;52.996;9.124;2022-12-15T21:33:26;37.53;;;21.33;;
25980;SDS011;13772;52.996;9.124;2022-12-15T21:35:51;37.60;;;21.30;;
25980;SDS011;13772;52.996;9.124;2022-12-15T21:38:35;42.97;;;21.43;;
25980;SDS011;13772;52.996;9.124;2022-12-15T21:41:04;34.57;;;20.97;;
25980;SDS011;13772;52.996;9.124;2022-12-15T21:43:30;36.07;;;19.70;;
25980;SDS011;13772;52.996;9.124;2022-12-15T21:45:57;44.70;;;21.20;;
25980;SDS011;13772;52.996;9.124;2022-12-15T21:48:22;37.10;;;21.13;;
25980;SDS011;13772;52.996;9.124;2022-12-15T21:51:08;36.57;;;18.33;;
25980;SDS011;13772;52.996;9.124;2022-12-15T21:53:34;35.97;;;20.07;;
25980;SDS011;13772;52.996;9.124;2022-12-15T21:56:00;37.70;;;20.23;;
25980;SDS011;13772;52.996;9.124;2022-12-15T21:58:25;37.40;;;19.77;;
25980;SDS011;13772;52.996;9.124;2022-12-15T22:00:52;34.80;;;18.87;;
25980;SDS011;13772;52.996;9.124;2022-12-15T22:03:17;33.20;;;19.43;;
25980;SDS011;13772;52.996;9.124;2022-12-15T22:05:42;33.10;;;20.17;;
25980;SDS011;13772;52.996;9.124;2022-12-15T22:08:17;34.80;;;20.47;;
25980;SDS011;13772;52.996;9.124;2022-12-15T22:10:43;31.23;;;18.97;;
25980;SDS011;13772;52.996;9.124;2022-12-15T22:13:20;33.33;;;19.40;;
25980;SDS011;13772;52.996;9.124;2022-12-15T22:15:46;34.80;;;19.23;;
25980;SDS011;13772;52.996;9.124;2022-12-15T22:18:12;36.97;;;20.57;;
25980;SDS011;13772;52.996;9.124;2022-12-15T22:20:43;33.30;;;19.67;;
25980;SDS011;13772;52.996;9.124;2022-12-15T22:23:09;34.77;;;19.77;;
25980;SDS011;13772;52.996;9.124;2022-12-15T22:25:35;33.23;;;19.40;;
25980;SDS011;13772;52.996;9.124;2022-12-15T22:28:01;37.13;;;20.73;;
25980;SDS011;13772;52.996;9.124;2022-12-15T22:30:26;38.67;;;20.87;;
25980;SDS011;13772;52.996;9.124;2022-12-15T22:32:51;37.30;;;20.77;;
25980;SDS011;13772;52.996;9.124;2022-12-15T22:35:18;34.83;;;20.23;;
25980;SDS011;13772;52.996;9.124;2022-12-15T22:37:43;34.80;;;20.50;;
25980;SDS011;13772;52.996;9.124;2022-12-15T22:40:09;37.40;;;21.27;;
25980;SDS011;13772;52.996;9.124;2022-12-15T22:42:35;41.20;;;22.63;;
25980;SDS011;13772;52.996;9.124;2022-12-15T22:45:01;38.90;;;21.47;;
25980;SDS011;13772;52.996;9.124;2022-12-15T22:47:26;38.80;;;20.67;;
25980;SDS011;13772;52.996;9.124;2022-12-15T22:49:51;39.70;;;20.77;;
25980;SDS011;13772;52.996;9.124;2022-12-15T22:52:18;37.13;;;21.47;;
25980;SDS011;13772;52.996;9.124;2022-12-15T22:54:44;36.70;;;20.63;;
25980;SDS011;13772;52.996;9.124;2022-12-15T22:57:16;40.33;;;21.67;;
25980;SDS011;13772;52.996;9.124;2022-12-15T22:59:45;21.13;;;12.88;;
